Aerodrome Latest Weathers

# Airport/Station Observation Time (Local Time) Wind Visibility (km) Weather Temp. (°C) Dewdrop (°C) Air Pressure (hPa)
Direction (from) Speed (km/h)
1 Sultan Iskandar Muda - Banda Aceh 2020-10-29 06:30:00 WIB Barat Laut 5.6 >=10 Cerah - berawan 23 22 1008
2 Cut Nyak Dien Nagan Raya - Meulaboh, NAD 2020-10-29 06:00:00 WIB Utara 3.7 6.0 Berawan 24 23 1009
3 Malikus Saleh - Lhokseumawe 2020-10-29 04:00:00 WIB Selatan 5.6 6.0 Cerah - berawan 25 24 1008
4 Binaka - Gunung Sitoli 2020-10-29 06:00:00 WIB Tenang 7.0 Cerah - berawan 23 23 1009
5 Kualanamu International Airport - Deli Serdang 2020-10-29 06:30:00 WIB Selatan 7.4 5.0 Halimun 26 26 1009
6 Dr. Ferdinand Lumban Tobing - Pinangsori (Sibolga) 2020-10-29 06:30:00 WIB Tenggara 3.7 >=10 Berawan 23 23 1009
7 Silangit - Tapanuli Utara 2020-10-29 06:30:00 WIB Barat Laut 11.1 4.0 Halimun 16 14 1018
8 Aek Godang - Padang Sidempuan 2020-10-29 06:30:00 WIB Barat Laut 3.7 9.0 Berawan 24 21 1010
9 Minangkabau International Airport - Padang 2020-10-29 06:30:00 WIB Timur Laut 1.9 >=10 Cerah - berawan 24 23 1009
10 Sultan Syarif Kasim II - Pekanbaru 2020-10-29 06:30:00 WIB Tenang 8.0 Cerah - berawan 24 24 1008
11 Fatmawati Sukarno - Bengkulu 2020-10-29 06:30:00 WIB Timur 3.7 7.0 Cerah - berawan 24 23 1008
12 Sultan Thaha - Jambi 2020-10-29 06:30:00 WIB Tenggara 7.4 2.8 Udara kabur 24 23 1009
13 Hang Nadim - Batam 2020-10-29 06:30:00 WIB Tenang >=10 Cerah - berawan 26 25 1010
14 Raja Haji Fisabilillah - Tanjung Pinang 2020-10-29 06:30:00 WIB Tenang >=10 Cerah - berawan 25 24 1009
15 Sultan Mahmud Badaruddin II - Palembang 2020-10-29 06:30:00 WIB Tenang 6.0 Cerah - berawan 24 23 1010
16 Radin Inten II - Lampung 2020-10-29 06:00:00 WIB Tenang 8.0 Cerah - berawan 24 22 1010
17 Depati Amir - Pangkal Pinang 2020-10-29 06:00:00 WIB Tenggara 3.7 7.0 Berawan 26 24 1010
18 Budiarto - Curug 2020-10-29 06:30:00 WIB Tenggara 3.7 2.8 Halimun 24 24 1011
19 Soekarno Hatta - Jakarta 2020-10-29 06:30:00 WIB Selatan 7.4 6.0 Cerah - berawan 27 23 1011
20 Atang Sendjaja - Bogor 2020-10-29 06:00:00 WIB Tenang 2.0 Halimun 23 23 1009
21 Halim Perdana Kusuma - Jakarta 2020-10-29 06:30:00 WIB Tenang 3.0 Udara kabur 26 24 1011
22 Husein Sastranegara - Bandung 2020-10-29 06:00:00 WIB Timur 7.4 4.0 Udara kabur 20 20 1016
23 H.A.S. Hanandjoeddin - Tanjung Pandan 2020-10-29 06:00:00 WIB Tenang 7.0 Berawan 24 24 1011
24 Kertajati 2020-10-29 06:30:00 WIB Variabel 3.7 >=10 Cerah - berawan 25 23 1011
25 Ranai - Natuna 2020-10-29 06:30:00 WIB Barat 5.6 >=10 Cerah - berawan 27 26 1010
26 Cakrabhuwana / Penggung - Cirebon 2020-10-29 06:30:00 WIB Selatan 5.6 Cerah 26 22 1011
27 Tunggul Wulung - Cilacap 2020-10-29 06:00:00 WIB Timur Laut 1.9 Cerah 24 24 1011
28 Supadio - Pontianak 2020-10-29 06:30:00 WIB Tenang 3.0 Halimun 25 24 1011
29 Rahadi Oesman - Ketapang 2020-10-29 06:30:00 WIB Barat Laut 1.9 >=10 Cerah - berawan 26 26 1011
30 Yogyakarta International Airport - Kulonprogo 2020-10-29 06:00:00 WIB Utara 7.4 9.0 Cerah - berawan 26 25 1011
31 Ahmad Yani - Semarang 2020-10-29 06:30:00 WIB Variabel 3.7 8.0 Cerah 28 23 1011
32 Adi Soemarmo - Surakarta 2020-10-29 06:00:00 WIB Tenang 4.0 Udara kabur 24 23 1012
33 Tebelian - Sintang 2020-10-29 06:30:00 WIB Tenang 5.0 Udara kabur 24 24 1011
34 Iskandar - Pangkalan Bun 2020-10-29 06:30:00 WIB Tenang 6.0 Berawan 25 25 1011
35 Juanda - Surabaya 2020-10-29 06:30:00 WIB Variabel 5.6 5.0 Udara kabur 27 23 1011
36 Haji Asan - Sampit 2020-10-29 06:30:00 WIB Timur Laut 3.7 7.0 Berawan 26 25 1010
37 Tjilik Riwut - Palangkaraya 2020-10-29 06:30:00 WIB Utara 9.3 9.0 Cerah - berawan 27 25 1013
38 Banyuwangi 2020-10-29 06:30:00 WIB Barat 5.6 8.0 Cerah - berawan 27 25 1012
39 Beringin - Muara Teweh 2020-10-29 06:30:00 WIB Tenang 5.0 Halimun 25 24 1011
40 H. Hasan Aroeboesman - Ende 2020-10-29 06:00:00 WIB Timur Laut 5.6 8.0 Berawan 28 24 1012
41 Syamsudin Noor - Banjarmasin 2020-10-29 07:30:00 WITA Timur Laut 5.6 8.0 Cerah - berawan 25 24 1010
42 I Gusti Ngurah Rai - Denpasar 2020-10-29 06:32:00 WITA Variabel 1.9 8.0 Hujan ringan 25 24 1011
43 Gusti Sjamsir Alam - Kota Baru 2020-10-29 07:30:00 WITA Tenang 7.0 Berawan 26 26 1011
44 Bandara Internasional Lombok - Praya 2020-10-29 07:30:00 WITA Tenggara 7.4 8.0 Berawan 28 25 1012
45 Sultan Aji Muhammad Sulaiman - Sepinggan 2020-10-29 07:30:00 WITA Barat Laut 7.4 9.0 Cerah - berawan 28 26 1011
46 Aji Pangeran Tumenggung Pranoto - Samarinda 2020-10-29 07:30:00 WITA Variabel 1.9 3.0 Halimun 26 26 1012
47 Tanjung Harapan - Tanjung Selor 2020-10-29 07:00:00 WITA Timur Laut 22.2 2.0 Guntur dan hujan ringan 24 23 1012
48 Sultan Muhammad Kaharuddin - Sumbawa Besar 2020-10-29 07:00:00 WITA Tenggara 9.3 >=10 Cerah - berawan 27 23 1011
49 Kalimarau - Tanjung Redeb 2020-10-29 07:00:00 WITA Barat Laut 3.7 5.0 Udara kabur 25 25 1012
50 Juwata - Tarakan 2020-10-29 06:00:00 WITA Tenang 6.0 Guntur dan hujan ringan 24 23 1011
51 Nunukan 2020-10-29 06:00:00 WITA Selatan 5.6 6.0 Guntur 25 24 1010
52 Sultan Muhammad Salahuddin - Bima 2020-10-29 07:30:00 WITA Tenang >=10 Cerah - berawan 28 24 1012
53 Tambolaka - Sumba Barat 2020-10-29 06:00:00 WITA Selatan 5.6 >=10 Cerah - berawan 23 22 1013
54 Sultan Hasanuddin - Makassar 2020-10-29 07:30:00 WITA Variabel 3.7 >=10 Cerah - berawan 28 23 1011
55 Pongtiku - Tana Toraja 2020-10-29 07:00:00 WITA Tenang 8.0 Berawan 19 18 1012
56 Komodo - Labuan Bajo 2020-10-29 07:30:00 WITA Tenggara 5.6 >=10 Cerah - berawan 29 23 1013
57 Mutiara SIS Al-Jufri - Palu 2020-10-29 07:30:00 WITA Timur 3.7 7.0 Hujan ringan 25 24 1013
58 Umbu Mehang Kunda - Waingapu 2020-10-29 07:00:00 WITA Barat Daya 7.4 >=10 Cerah - berawan 26 23 1012
59 Andi Jemma - Masamba 2020-10-29 07:00:00 WITA Utara 9.3 >=10 Cerah - berawan 25 22 1011
60 Frans Sales Lega - Ruteng 2020-10-29 07:00:00 WITA Tenang >=10 Cerah - berawan 19 16 1019
61 Kasiguncu - Poso 2020-10-29 07:00:00 WITA Barat 5.6 9.0 Berawan 25 23 1012
62 Sultan Bantilan - Toli Toli 2020-10-29 07:00:00 WITA Timur 5.6 Berawan 25 24 1010
63 Sangia Nibandera - Kolaka 2020-10-29 07:00:00 WITA Timur Laut 7.4 >=10 Cerah - berawan 28 23 1011
64 Tardamu - Sabu 2020-10-29 07:30:00 WITA Tenggara 13.0 >=10 Cerah - berawan 30 25 1013
65 Fransiskus Xaverius Seda - Maumere 2020-10-29 07:30:00 WITA Timur 5.6 >=10 Cerah - berawan 29 24 1013
66 Beto Ambari - Bau Bau 2020-10-29 07:00:00 WITA Timur 1.9 >=10 Cerah - berawan 27 24 1013
67 Syukuran Aminuddin Amir - Luwuk 2020-10-29 06:00:00 WITA Barat 3.7 >=10 Cerah - berawan 26 22 1012
68 Djalaluddin - Gorontalo 2020-10-29 07:30:00 WITA Timur 7.4 >=10 Cerah - berawan 26 25 1010
69 Gewayantana - Larantuka 2020-10-29 07:00:00 WITA Tenang >=10 Cerah - berawan 28 25 1012
70 David Constantijn Saudale - Rote 2020-10-29 07:00:00 WITA Tenang >=10 Berawan 28 24 1018
71 El Tari - Kupang 2020-10-29 07:30:00 WITA Timur 9.3 >=10 Cerah - berawan 30 24 1013
72 Mali - Alor 2020-10-29 07:00:00 WITA Selatan 5.6 8.0 Cerah - berawan 28 24 1012
73 Sam Ratulangi - Manado 2020-10-29 07:30:00 WITA Variabel 1.9 >=10 Cerah - berawan 26 24 1011
74 Naha - Tahuna 2020-10-29 07:00:00 WITA Barat Daya 7.4 8.0 Cerah - berawan 26 23 1011
75 Emalamo - Sanana 2020-10-29 08:00:00 WIT Barat 3.7 8.0 Berawan 25 24 1012
76 Sultan Babullah - Ternate 2020-10-29 08:30:00 WIT Tenggara 13.0 9.0 Berawan 27 25 1013
77 Oesman Sadik - Labuha 2020-10-29 08:00:00 WIT Timur 5.6 7.0 Berawan 24 23 1012
78 Gamar Malamo - Galela 2020-10-29 08:00:00 WIT Tenggara 5.6 >=10 Berawan 24 23 1012
79 Pattimura - Ambon 2020-10-29 08:30:00 WIT Timur Laut 5.6 >=10 Cerah - berawan 29 23 1012
80 Pitu - Morotai 2020-10-29 08:00:00 WIT Tenggara 3.7 8.0 Cerah - berawan 26 25 1012
81 Amahai 2020-10-29 08:00:00 WIT Timur Laut 3.7 >=10 Berawan 26 24 1013
82 Bandaneira - Banda 2020-10-29 08:00:00 WIT Timur Laut 1.9 7.0 Cerah - berawan 28 25 1013
83 Domine Eduard Osok - Sorong 2020-10-29 08:30:00 WIT Barat Laut 14.8 7.0 Berawan 27 23 1013
84 Mathilda Batlayeri - Saumlaki 2020-10-29 08:00:00 WIT Timur 13.0 >=10 Cerah - berawan 30 24 1012
85 Torea - Fak Fak 2020-10-29 08:00:00 WIT Tenang 8.0 Berawan 25 22 1014
86 Dumatubun - Langgur 2020-10-29 08:00:00 WIT Tenang >=10 Cerah - berawan 27 25 1013
87 Utarom - Kaimana 2020-10-29 07:00:00 WIT Tenang 7.0 Hujan tiba-tiba di sekitarnya 27 26 1012
88 Rendani - Manokwari 2020-10-29 08:30:00 WIT Barat 13.0 >=10 Cerah - berawan 29 23 1011
89 Douw Aturure - Nabire 2020-10-29 08:30:00 WIT Selatan 7.4 >=10 Cerah - berawan 27 23 1011
90 Frans Kaisiepo - Biak 2020-10-29 08:30:00 WIT Barat Daya 16.7 >=10 Berawan 30 26 1011
91 Enarotali 2020-10-29 08:00:00 WIT Tenang 7.0 Berawan 17 14 1012
92 Mozes Kilangin - Timika 2020-10-29 08:30:00 WIT Tenang >=10 Cerah - berawan 26 23 1014
93 Wamena 2020-10-29 08:30:00 WIT Timur Laut 7.4 >=10 Berawan 20 15 1023
94 Mopah - Merauke 2020-10-29 08:30:00 WIT Utara 5.6 >=10 Berawan 27 24 1012
95 Sentani - Jayapura 2020-10-29 08:30:00 WIT Barat Laut 7.4 >=10 Cerah - berawan 30 24 1010

Satellite Images

Wave Height Forecast

Wind Forecast

Forest Fires